createdAt,value
2022-11-28T00:01:34.343Z,20.13
2022-11-28T00:06:36.633Z,22.57
2022-11-28T00:11:35.466Z,23.00
2022-11-28T00:16:33.713Z,23.97
2022-11-28T00:21:33.570Z,23.90
2022-11-28T00:26:33.958Z,22.50
2022-11-28T00:31:35.605Z,22.60
2022-11-28T00:36:35.229Z,21.27
2022-11-28T00:41:35.303Z,20.17
2022-11-28T00:46:33.324Z,26.73
2022-11-28T00:51:33.847Z,26.73
2022-11-28T00:56:35.631Z,28.30
2022-11-28T01:01:35.579Z,28.83
2022-11-28T01:06:36.674Z,21.60
2022-11-28T01:11:38.150Z,27.77
2022-11-28T01:16:36.245Z,20.80
2022-11-28T01:21:34.705Z,23.37
2022-11-28T01:26:34.104Z,21.90
2022-11-28T01:31:33.671Z,23.40
2022-11-28T01:36:31.790Z,18.80
2022-11-28T01:41:30.254Z,28.03
2022-11-28T01:46:28.879Z,24.30
2022-11-28T01:51:29.091Z,27.60
2022-11-28T01:56:32.564Z,25.33
2022-11-28T02:01:30.966Z,25.93
2022-11-28T02:06:31.970Z,26.17
2022-11-28T02:11:59.415Z,25.67
2022-11-28T02:17:09.045Z,32.83
2022-11-28T02:22:11.815Z,25.50
2022-11-28T02:27:24.089Z,28.00
2022-11-28T02:32:51.450Z,23.97
2022-11-28T02:37:59.145Z,25.10
2022-11-28T02:43:06.189Z,24.03
2022-11-28T02:48:09.592Z,24.93
2022-11-28T02:53:11.470Z,23.87
2022-11-28T02:58:11.277Z,24.20
2022-11-28T03:03:39.898Z,32.67
2022-11-28T03:08:47.200Z,17.40
2022-11-28T03:13:57.018Z,23.13
2022-11-28T03:19:02.956Z,22.83
2022-11-28T03:24:04.632Z,20.80
2022-11-28T03:29:09.988Z,20.10
2022-11-28T03:34:15.244Z,22.90
2022-11-28T03:39:17.253Z,23.43
2022-11-28T03:44:20.269Z,20.23
2022-11-28T03:49:25.887Z,20.93
2022-11-28T03:54:29.054Z,26.50
2022-11-28T03:59:32.629Z,23.43
2022-11-28T04:04:37.811Z,19.10
2022-11-28T04:09:43.571Z,23.87
2022-11-28T04:14:47.872Z,22.63
2022-11-28T04:19:51.782Z,23.53
2022-11-28T04:24:53.849Z,19.63
2022-11-28T04:29:55.753Z,21.90
2022-11-28T04:35:00.530Z,24.73
2022-11-28T04:39:59.442Z,27.53
2022-11-28T04:45:03.888Z,23.70
2022-11-28T04:50:03.374Z,26.40
2022-11-28T04:55:08.945Z,23.43
2022-11-28T05:00:09.774Z,23.07
2022-11-28T05:05:13.373Z,20.63
2022-11-28T05:10:12.976Z,21.70
2022-11-28T05:15:12.023Z,22.00
2022-11-28T05:20:12.193Z,19.40
2022-11-28T05:25:10.747Z,18.53
2022-11-28T05:30:11.122Z,23.20
2022-11-28T05:35:10.965Z,23.37
2022-11-28T05:40:10.161Z,24.00
2022-11-28T05:45:09.212Z,23.87
2022-11-28T05:50:09.009Z,30.07
2022-11-28T05:55:09.428Z,29.70
2022-11-28T06:00:08.842Z,24.87
2022-11-28T06:05:34.790Z,28.40
2022-11-28T06:10:29.405Z,26.90
2022-11-28T06:15:27.424Z,26.27
2022-11-28T06:20:25.729Z,20.30
2022-11-28T06:25:23.890Z,31.67
2022-11-28T06:30:23.318Z,25.83
2022-11-28T06:35:21.355Z,27.83
2022-11-28T06:40:19.545Z,32.80
2022-11-28T06:45:17.705Z,22.70
2022-11-28T06:50:17.154Z,25.20
2022-11-28T06:55:15.269Z,25.17
2022-11-28T07:00:14.321Z,32.67
2022-11-28T07:05:12.333Z,30.77
2022-11-28T07:10:12.491Z,27.20
2022-11-28T07:15:11.331Z,31.60
2022-11-28T07:20:10.872Z,24.83
2022-11-28T07:25:11.179Z,38.53
2022-11-28T07:30:11.014Z,33.43
2022-11-28T07:35:09.754Z,29.57
2022-11-28T07:40:08.988Z,25.77
2022-11-28T07:45:09.646Z,28.20
2022-11-28T07:50:09.038Z,27.47
2022-11-28T07:55:07.914Z,31.20
2022-11-28T08:00:08.689Z,34.43
2022-11-28T08:05:10.963Z,33.13
2022-11-28T08:10:10.319Z,26.33
2022-11-28T08:15:10.490Z,30.57
2022-11-28T08:20:10.090Z,30.10
2022-11-28T08:25:08.697Z,33.63
2022-11-28T08:30:10.155Z,33.60
2022-11-28T08:35:08.632Z,30.47
2022-11-28T08:40:08.177Z,31.27
2022-11-28T08:45:08.025Z,27.43
2022-11-28T08:50:08.881Z,32.80
2022-11-28T08:55:07.526Z,34.77
2022-11-28T09:00:06.323Z,37.67
2022-11-28T09:05:04.831Z,32.13
2022-11-28T09:10:04.634Z,28.00
2022-11-28T09:15:02.694Z,31.30
2022-11-28T09:20:00.730Z,30.10
2022-11-28T09:24:58.774Z,28.80
2022-11-28T09:29:58.183Z,28.47
2022-11-28T09:34:56.205Z,30.10
2022-11-28T09:40:12.195Z,29.90
2022-11-28T09:45:16.940Z,33.40
2022-11-28T09:50:19.557Z,36.20
2022-11-28T09:55:22.659Z,34.23
2022-11-28T10:00:24.845Z,31.93
2022-11-28T10:05:30.080Z,26.87
2022-11-28T10:10:37.627Z,37.90
2022-11-28T10:15:45.528Z,32.53
2022-11-28T10:20:46.695Z,30.57
2022-11-28T10:25:49.456Z,33.20
2022-11-28T10:30:53.839Z,47.03
2022-11-28T10:35:54.933Z,42.70
2022-11-28T10:40:59.510Z,34.60
2022-11-28T10:46:14.517Z,33.10
2022-11-28T10:51:25.149Z,36.53
2022-11-28T10:56:36.024Z,31.20
2022-11-28T11:01:38.991Z,33.23
2022-11-28T11:06:47.739Z,34.70
2022-11-28T11:12:00.850Z,34.27
2022-11-28T11:17:00.263Z,31.70
2022-11-28T11:22:04.318Z,30.40
2022-11-28T11:27:08.090Z,28.00
2022-11-28T11:32:17.712Z,33.03
2022-11-28T11:37:21.742Z,35.43
2022-11-28T11:42:24.609Z,33.57
2022-11-28T11:47:42.113Z,30.77
2022-11-28T11:52:40.232Z,34.03
2022-11-28T11:57:40.919Z,30.63
2022-11-28T12:02:45.157Z,38.63
2022-11-28T12:07:51.356Z,28.27
2022-11-28T12:12:49.546Z,26.07
2022-11-28T12:18:02.373Z,24.87
2022-11-28T12:23:15.803Z,31.00
2022-11-28T12:28:27.736Z,28.60
2022-11-28T12:33:40.096Z,24.43
2022-11-28T12:38:59.558Z,30.30
2022-11-28T12:44:04.503Z,22.40
2022-11-28T12:49:17.392Z,32.90
2022-11-28T12:54:41.820Z,27.80
2022-11-28T12:59:49.950Z,23.20
2022-11-28T13:05:10.618Z,25.17
2022-11-28T13:10:16.455Z,28.20
2022-11-28T13:15:21.975Z,34.60
2022-11-28T13:20:29.704Z,28.00
2022-11-28T13:25:36.866Z,26.17
2022-11-28T13:30:43.627Z,31.87
2022-11-28T13:35:45.320Z,34.57
2022-11-28T13:40:50.157Z,31.53
2022-11-28T13:45:48.651Z,32.60
2022-11-28T13:51:00.965Z,29.90
2022-11-28T13:56:21.787Z,30.00
2022-11-28T14:01:22.294Z,32.37
2022-11-28T14:06:24.606Z,31.00
2022-11-28T14:11:42.046Z,30.10
2022-11-28T14:16:52.982Z,36.33
2022-11-28T14:22:08.455Z,38.53
2022-11-28T14:27:08.099Z,34.33
2022-11-28T14:32:29.180Z,36.70
2022-11-28T14:37:52.813Z,27.77
2022-11-28T14:43:31.636Z,35.57
2022-11-28T14:48:31.111Z,35.00
2022-11-28T14:53:49.858Z,43.03
2022-11-28T14:58:49.364Z,36.43
2022-11-28T15:03:55.021Z,35.30
2022-11-28T15:09:07.034Z,41.70
2022-11-28T15:14:15.131Z,35.00
2022-11-28T15:19:21.165Z,37.23
2022-11-28T15:24:26.649Z,39.30
2022-11-28T15:29:26.570Z,49.37
2022-11-28T15:34:27.657Z,33.30
2022-11-28T15:39:31.510Z,42.63
2022-11-28T15:44:30.469Z,38.60
2022-11-28T15:49:31.388Z,41.00
2022-11-28T15:54:42.070Z,38.50
2022-11-28T15:59:40.338Z,43.83
2022-11-28T16:04:39.686Z,40.17
2022-11-28T16:09:39.314Z,40.70
2022-11-28T16:14:45.565Z,37.33
2022-11-28T16:19:45.409Z,36.00
2022-11-28T16:24:48.223Z,39.93
2022-11-28T16:29:47.308Z,39.73
2022-11-28T16:34:47.214Z,47.37
2022-11-28T16:39:46.882Z,42.57
2022-11-28T16:44:45.365Z,45.80
2022-11-28T16:50:16.177Z,42.77
2022-11-28T16:55:46.017Z,38.90
2022-11-28T17:00:47.698Z,48.60
2022-11-28T17:05:45.767Z,45.23
2022-11-28T17:10:45.972Z,46.40
2022-11-28T17:15:44.010Z,47.63
2022-11-28T17:20:42.163Z,50.10
2022-11-28T17:25:40.177Z,50.80
2022-11-28T17:30:39.593Z,49.17
2022-11-28T17:35:42.469Z,58.37
2022-11-28T17:40:42.161Z,48.57
2022-11-28T17:45:41.588Z,49.33
2022-11-28T17:50:39.632Z,54.53
2022-11-28T17:55:42.150Z,62.07
2022-11-28T18:00:41.689Z,56.80
2022-11-28T18:05:41.178Z,58.53
2022-11-28T18:10:39.767Z,56.27
2022-11-28T18:15:39.363Z,54.10
2022-11-28T18:20:39.820Z,65.23
2022-11-28T18:25:42.586Z,65.37
2022-11-28T18:30:43.238Z,64.60
2022-11-28T18:35:42.675Z,58.07
2022-11-28T18:40:40.949Z,62.80
2022-11-28T18:45:39.095Z,63.70
2022-11-28T18:50:37.162Z,58.10
2022-11-28T18:55:36.566Z,67.10
2022-11-28T19:00:34.666Z,66.47
2022-11-28T19:05:37.832Z,62.73
2022-11-28T19:10:40.879Z,64.10
2022-11-28T19:15:40.859Z,67.03
2022-11-28T19:20:42.558Z,58.67
2022-11-28T19:25:44.269Z,62.77
2022-11-28T19:30:42.828Z,67.03
2022-11-28T19:35:40.974Z,56.53
2022-11-28T19:40:38.993Z,67.03
2022-11-28T19:45:38.873Z,64.57
2022-11-28T19:50:36.924Z,60.20
2022-11-28T19:55:36.150Z,60.07
2022-11-28T20:00:34.505Z,64.77
2022-11-28T20:05:34.832Z,57.63
2022-11-28T20:10:36.552Z,63.70
2022-11-28T20:15:36.706Z,68.47
2022-11-28T20:20:36.986Z,63.47
2022-11-28T20:25:35.064Z,68.73
2022-11-28T20:30:36.449Z,72.87
2022-11-28T20:35:35.875Z,53.03
2022-11-28T20:40:33.955Z,56.00
2022-11-28T20:45:32.973Z,53.60
2022-11-28T20:50:31.055Z,64.80
2022-11-28T20:55:30.510Z,57.20
2022-11-28T21:00:28.542Z,57.83
2022-11-28T21:05:26.641Z,60.03
2022-11-28T21:10:26.061Z,57.27
2022-11-28T21:15:26.236Z,59.83
2022-11-28T21:20:24.736Z,56.13
2022-11-28T21:25:23.398Z,59.23
2022-11-28T21:30:21.462Z,53.60
2022-11-28T21:35:20.875Z,52.93
2022-11-28T21:40:19.138Z,58.03
2022-11-28T21:45:17.284Z,52.00
2022-11-28T21:50:16.854Z,55.43
2022-11-28T21:55:16.419Z,52.87
2022-11-28T22:00:31.652Z,59.70
2022-11-28T22:05:34.983Z,51.03
2022-11-28T22:10:34.997Z,52.50
2022-11-28T22:15:33.559Z,57.13
2022-11-28T22:20:32.129Z,51.63
2022-11-28T22:25:30.222Z,54.17
2022-11-28T22:30:29.918Z,62.60
2022-11-28T22:35:28.587Z,55.97
2022-11-28T22:40:26.620Z,50.60
2022-11-28T22:45:24.955Z,51.20
2022-11-28T22:50:24.718Z,58.03
2022-11-28T22:55:22.771Z,52.20
2022-11-28T23:00:21.779Z,53.00
2022-11-28T23:05:20.203Z,53.33
2022-11-28T23:10:20.701Z,52.80
2022-11-28T23:15:19.433Z,53.47
2022-11-28T23:20:18.074Z,50.33
2022-11-28T23:25:16.285Z,51.00
2022-11-28T23:30:16.295Z,51.80
2022-11-28T23:35:14.625Z,48.83
2022-11-28T23:40:13.266Z,51.53
2022-11-28T23:45:12.492Z,48.37
2022-11-28T23:50:12.307Z,57.77
2022-11-28T23:55:10.628Z,48.70
